Terminal Aerodrome Forecast
Issued by NWS Charleston, WV

Current Version | Previous Version | Graphics & Text | Print | Product List | Glossary On
Versions: 1 2 3 4 5 6 7 8 9 10 11 12 13 14 15 16 17 18 19 20 21 22 23 24 25 26 27
495
FTUS41 KRLX 121120
TAFEKN
TAF
KEKN 121120Z 1212/1312 00000KT P6SM BKN250
     FM121600 29007KT 5SM -SN OVC025
     FM121900 28009KT 5SM -SHSN OVC035
     FM130100 28015G25KT 2SM -SHSN OVC015=

USA.gov is the U.S. government's official web portal to all federal, state and local government web resources and services.